Impacts METAR Board
IDs:

KDEN - Denver Intl, CO, US

Updated at: 1400 UTC 21 May 2019
Potential Impact None Slight Moderate High
Time 21/02Z 21/03Z 21/04Z 21/05Z 21/06Z 21/07Z 21/08Z 21/09Z 21/10Z 21/11Z 21/12Z 21/13Z 21/14Z
Temp32 33 33 32 32 32 32 32 31 31 31 31 32
Dewpt32 33 32 32 32 31 31 31 31 31 31 31 31
Altim29.79 29.79 29.79 29.77 29.75 29.72 29.69 29.69 29.67 29.65 29.61 29.61 29.62
VIS0.25 0.5 0.5 0.5 0.5 0.5 0.5 0.5 0.5 0.5 0.5 0.5 0.5
CIG10 10 9 4 11 3 3 8 3 3 3 3 2
CoverOVXOVXOVCOVCOVCOVCOVCOVCOVCOVCOVCOVXOVC
FltCatLIFRLIFRLIFRLIFRLIFRLIFRLIFRLIFRLIFRLIFRLIFRLIFRLIFR
WXSN FG-SN BR-SN BR-SN BR-SN BR-SN BR-SN BR-SN BR-SN BR-SN BR-SN BRBR-SN BR
WDir360350330350340330340340340340320330360
WSpd4 6 10 10 8 8 9 7 8 9 14 9 11
WGst-- -- -- -- -- -- -- -- -- -- -- -- --
Raw hourly METARs
KDEN 210153Z 36004KT 1/4SM R35L/4500VP6000FT SN FG VV010 00/00 A2979 RMK AO2 SLP090 P0014 T00000000 $
KDEN 210253Z 35006KT 1/2SM R35L/P6000FT -SN BR VV010 01/01 A2979 RMK AO2 SFC VIS 3/4 SLP088 P0019 60043 T00060006 52003 $
KDEN 210353Z 33010KT 1/2SM R35L/6000VP6000FT -SN BR FEW003 OVC009 01/00 A2979 RMK AO2 SFC VIS 1 SLP085 P0013 T00060000 $
KDEN 210453Z 35010KT 1/2SM R35L/P6000FT -SN BR BKN004 OVC009 00/00 A2977 RMK AO2 SFC VIS 2 1/2 SLP081 P0005 T00000000 $
KDEN 210605Z 34008KT 1/2SM R35L/6000VP6000FT -SN BR FEW004 OVC011 00/00 A2975 RMK AO2 SFC VIS 1 P0002 T00000000 $
KDEN 210653Z 33008KT 1/2SM R35L/P6000FT -SN BR BKN003 OVC016 00/M01 A2972 RMK AO2 SFC VIS 1 3/4 SLP062 P0005 T00001006 400670000 $
KDEN 210753Z 34009KT 1/2SM R35L/P6000FT -SN BR BKN003 OVC016 00/M01 A2969 RMK AO2 SFC VIS 2 SLP053 P0003 T00001006 $
KDEN 210853Z 34007KT 1/2SM R35L/P6000FT -SN BR SCT003 OVC008 00/M01 A2969 RMK AO2 SFC VIS 1 1/2 SLP045 P0003 60011 T00001006 56010 $
KDEN 210953Z 34008KT 1/2SM R35L/P6000FT -SN BR OVC003 M01/M01 A2967 RMK AO2 SFC VIS 2 1/2 SLP046 P0001 T10061006 $
KDEN 211053Z 34009KT 1/2SM R35L/P6000FT -SN BR BKN003 OVC028 M01/M01 A2965 RMK AO2 SFC VIS 2 SLP036 P0001 T10061006 $
KDEN 211153Z 32014KT 1/2SM R35L/P6000FT -SN BR BKN003 OVC011 M01/M01 A2961 RMK AO2 SFC VIS 2 1/2 SLP025 P0001 60014 70111 T10061006 10000 21006 58021 $
KDEN 211253Z 33009KT 1/2SM R35L/P6000FT BR VV003 M01/M01 A2961 RMK AO2 SFC VIS 3/4 SNE08B33E39 SLP033 P0000 T10061006
KDEN 211353Z 36011KT 1/2SM R35L/P6000FT -SN BR BKN002 OVC008 00/M01 A2962 RMK AO2 SFC VIS 3/4 SNB35 SLP034 P0000 T00001006



Page loaded:  14:36 UTC  |   07:36 AM Pacific  |   08:36 AM Mountain  |   09:36 AM Central  |   10:36 AM Eastern

 

ADVISORIES

FORECASTS

FORECASTS

OBSERVATIONS

USER TOOLS

ABOUT US